createdAt,value
2018-04-25T00:01:42.181Z,79.75
2018-04-25T00:04:11.491Z,80.44
2018-04-25T00:06:39.932Z,80.47
2018-04-25T00:09:08.443Z,80.38
2018-04-25T00:11:37.817Z,80.42
2018-04-25T00:14:06.216Z,80.67
2018-04-25T00:16:34.877Z,80.63
2018-04-25T00:19:04.137Z,80.48
2018-04-25T00:21:32.598Z,80.81
2018-04-25T00:24:01.060Z,80.68
2018-04-25T00:26:30.197Z,80.52
2018-04-25T00:28:58.577Z,80.95
2018-04-25T00:31:26.966Z,81.10
2018-04-25T00:33:57.112Z,81.05
2018-04-25T00:36:25.493Z,81.21
2018-04-25T00:38:53.849Z,81.31
2018-04-25T00:41:24.012Z,81.94
2018-04-25T00:43:52.389Z,82.15
2018-04-25T00:46:20.856Z,82.01
2018-04-25T00:48:49.370Z,82.14
2018-04-25T00:51:17.784Z,82.36
2018-04-25T00:53:46.296Z,82.38
2018-04-25T00:56:15.510Z,82.77
2018-04-25T00:58:44.952Z,82.74
2018-04-25T01:01:13.381Z,82.82
2018-04-25T01:03:42.017Z,83.00
2018-04-25T01:06:10.401Z,83.13
2018-04-25T01:08:38.819Z,82.90
2018-04-25T01:11:07.415Z,83.17
2018-04-25T01:13:36.857Z,83.08
2018-04-25T01:16:05.322Z,83.09
2018-04-25T01:18:35.250Z,82.97
2018-04-25T01:21:03.890Z,82.82
2018-04-25T01:23:32.269Z,82.89
2018-04-25T01:26:10.654Z,82.96
2018-04-25T01:28:41.042Z,82.85
2018-04-25T01:31:18.899Z,82.70
2018-04-25T01:33:55.206Z,82.68
2018-04-25T01:36:29.535Z,82.83
2018-04-25T01:39:03.930Z,83.00
2018-04-25T01:41:32.316Z,83.06
2018-04-25T01:44:00.709Z,82.86
2018-04-25T01:46:30.670Z,82.85
2018-04-25T01:49:13.672Z,82.75
2018-04-25T01:51:53.884Z,82.80
2018-04-25T01:54:35.468Z,82.78
2018-04-25T01:57:15.586Z,82.94
2018-04-25T01:59:56.168Z,82.81
2018-04-25T02:02:24.017Z,82.58
2018-04-25T02:04:52.378Z,82.50
2018-04-25T02:07:20.756Z,82.74
2018-04-25T02:09:49.152Z,82.85
2018-04-25T02:12:17.577Z,82.56
2018-04-25T02:14:46.560Z,82.54
2018-04-25T02:17:15.086Z,82.73
2018-04-25T02:19:43.491Z,82.81
2018-04-25T02:22:11.906Z,82.60
2018-04-25T02:24:40.319Z,82.70
2018-04-25T02:27:08.817Z,83.11
2018-04-25T02:29:37.307Z,83.02
2018-04-25T02:32:05.686Z,83.21
2018-04-25T02:34:34.054Z,83.26
2018-04-25T02:37:02.443Z,83.33
2018-04-25T02:39:30.822Z,83.44
2018-04-25T02:41:59.252Z,83.65
2018-04-25T02:44:28.391Z,83.76
2018-04-25T02:46:56.742Z,83.86
2018-04-25T02:49:25.122Z,84.03
2018-04-25T02:51:53.527Z,84.15
2018-04-25T02:54:21.924Z,84.36
2018-04-25T02:56:50.338Z,84.34
2018-04-25T02:59:18.742Z,84.47
2018-04-25T03:01:47.132Z,84.67
2018-04-25T03:04:15.708Z,84.85
2018-04-25T03:06:44.193Z,84.94
2018-04-25T03:09:12.607Z,85.05
2018-04-25T03:11:41.011Z,85.15
2018-04-25T03:14:09.565Z,85.15
2018-04-25T03:16:38.106Z,85.12
2018-04-25T03:19:06.595Z,85.13
2018-04-25T03:21:35.095Z,85.13
2018-04-25T03:24:03.510Z,85.10
2018-04-25T03:26:31.876Z,85.17
2018-04-25T03:29:01.138Z,85.39
2018-04-25T03:31:29.511Z,85.64
2018-04-25T03:33:57.892Z,85.67
2018-04-25T03:36:26.289Z,85.73
2018-04-25T03:38:54.744Z,86.06
2018-04-25T03:41:23.131Z,86.37
2018-04-25T03:43:51.517Z,86.62
2018-04-25T03:46:19.895Z,86.73
2018-04-25T03:48:48.354Z,86.75
2018-04-25T03:51:16.800Z,86.72
2018-04-25T03:53:45.261Z,86.71
2018-04-25T03:56:13.808Z,86.69
2018-04-25T03:58:43.823Z,86.62
2018-04-25T04:01:12.307Z,86.57
2018-04-25T04:03:40.792Z,86.50
2018-04-25T04:06:09.779Z,86.44
2018-04-25T04:08:38.365Z,86.37
2018-04-25T04:11:06.881Z,86.34
2018-04-25T04:13:35.435Z,86.41
2018-04-25T04:16:05.243Z,86.49
2018-04-25T04:18:35.091Z,86.57
2018-04-25T04:21:04.667Z,86.65
2018-04-25T04:23:33.161Z,86.60
2018-04-25T04:26:01.551Z,86.43
2018-04-25T04:28:30.668Z,86.30
2018-04-25T04:30:59.065Z,86.33
2018-04-25T04:33:27.440Z,86.33
2018-04-25T04:35:56.873Z,86.31
2018-04-25T04:38:25.283Z,86.36
2018-04-25T04:40:53.683Z,86.24
2018-04-25T04:43:22.939Z,86.18
2018-04-25T04:45:51.361Z,86.11
2018-04-25T04:48:19.741Z,86.15
2018-04-25T04:50:48.144Z,86.07
2018-04-25T04:53:16.496Z,86.08
2018-04-25T04:55:44.969Z,86.09
2018-04-25T04:58:13.907Z,86.10
2018-04-25T05:00:42.310Z,85.96
2018-04-25T05:03:10.953Z,85.94
2018-04-25T05:05:39.483Z,85.77
2018-04-25T05:08:07.886Z,85.72
2018-04-25T05:10:36.317Z,85.61
2018-04-25T05:13:04.908Z,85.53
2018-04-25T05:15:33.257Z,85.21
2018-04-25T05:18:01.689Z,84.89
2018-04-25T05:20:30.078Z,84.67
2018-04-25T05:22:58.398Z,84.37
2018-04-25T05:25:26.795Z,84.30
2018-04-25T05:27:55.206Z,83.99
2018-04-25T05:30:23.642Z,83.74
2018-04-25T05:32:52.093Z,83.70
2018-04-25T05:35:20.565Z,83.86
2018-04-25T05:37:48.951Z,84.06
2018-04-25T05:40:17.382Z,84.07
2018-04-25T05:42:45.814Z,84.05
2018-04-25T05:45:14.195Z,84.17
2018-04-25T05:47:42.579Z,84.26
2018-04-25T05:50:10.995Z,84.42
2018-04-25T05:52:39.485Z,84.44
2018-04-25T05:55:07.904Z,84.61
2018-04-25T05:57:36.294Z,84.89
2018-04-25T06:00:04.774Z,85.04
2018-04-25T06:02:33.206Z,85.13
2018-04-25T06:05:02.224Z,85.27
2018-04-25T06:07:30.573Z,85.17
2018-04-25T06:09:59.008Z,85.02
2018-04-25T06:12:28.231Z,84.72
2018-04-25T06:14:56.613Z,84.81
2018-04-25T06:17:25.079Z,84.88
2018-04-25T06:19:53.794Z,84.94
2018-04-25T06:22:22.177Z,84.88
2018-04-25T06:24:50.518Z,84.74
2018-04-25T06:27:18.921Z,84.75
2018-04-25T06:29:47.266Z,84.73
2018-04-25T06:32:15.701Z,84.80
2018-04-25T06:34:44.630Z,85.09
2018-04-25T06:37:13.032Z,85.26
2018-04-25T06:39:41.514Z,85.27
2018-04-25T06:42:10.083Z,85.32
2018-04-25T06:44:38.666Z,85.34
2018-04-25T06:47:07.196Z,85.25
2018-04-25T06:49:35.836Z,85.24
2018-04-25T06:52:04.240Z,85.04
2018-04-25T06:54:32.691Z,84.98
2018-04-25T06:57:01.172Z,84.98
2018-04-25T06:59:29.763Z,84.55
2018-04-25T07:01:58.132Z,84.26
2018-04-25T07:04:26.520Z,84.41
2018-04-25T07:06:54.984Z,84.44
2018-04-25T07:09:23.354Z,84.65
2018-04-25T07:11:51.992Z,84.28
2018-04-25T07:17:12.495Z,83.90
2018-04-25T07:19:41.015Z,83.66
2018-04-25T07:22:09.419Z,83.78
2018-04-25T07:24:39.354Z,83.28
2018-04-25T07:27:07.836Z,82.92
2018-04-25T07:29:36.382Z,82.77
2018-04-25T07:32:05.247Z,82.03
2018-04-25T07:34:34.139Z,82.36
2018-04-25T07:37:02.497Z,82.65
2018-04-25T07:39:30.872Z,82.19
2018-04-25T07:41:59.296Z,81.82
2018-04-25T07:44:27.572Z,79.89
2018-04-25T07:46:56.289Z,80.14
2018-04-25T07:49:24.651Z,80.07
2018-04-25T07:51:55.760Z,80.04
2018-04-25T07:54:24.193Z,79.29
2018-04-25T07:56:52.533Z,79.87
2018-04-25T07:59:20.888Z,80.18
2018-04-25T08:01:50.339Z,79.44
2018-04-25T08:04:18.674Z,79.91
2018-04-25T08:06:47.083Z,80.09
2018-04-25T08:09:15.501Z,79.58
2018-04-25T08:11:43.955Z,79.72
2018-04-25T08:14:24.344Z,80.15
2018-04-25T08:17:04.424Z,80.02
2018-04-25T08:19:44.632Z,80.20
2018-04-25T08:22:13.018Z,80.24
2018-04-25T08:24:41.417Z,80.36
2018-04-25T08:27:11.336Z,80.54
2018-04-25T08:29:39.757Z,81.28
2018-04-25T08:32:08.278Z,82.19
2018-04-25T08:34:36.862Z,82.82
2018-04-25T08:37:05.466Z,83.36
2018-04-25T08:39:33.886Z,83.56
2018-04-25T08:42:06.423Z,83.60
2018-04-25T08:44:34.921Z,82.62
2018-04-25T08:47:03.298Z,82.42
2018-04-25T08:49:32.109Z,82.21
2018-04-25T08:52:00.497Z,81.82
2018-04-25T08:54:28.842Z,81.89
2018-04-25T08:56:57.245Z,80.89
2018-04-25T08:59:25.623Z,80.82
2018-04-25T09:01:53.976Z,81.17
2018-04-25T09:04:22.356Z,81.05
2018-04-25T09:06:50.760Z,80.84
2018-04-25T09:09:19.116Z,80.88
2018-04-25T09:11:47.576Z,80.69
2018-04-25T09:14:16.228Z,80.50
2018-04-25T09:16:44.662Z,80.62
2018-04-25T09:19:16.193Z,81.20
2018-04-25T09:21:44.653Z,81.66
2018-04-25T09:24:14.072Z,81.39
2018-04-25T09:26:42.621Z,81.40
2018-04-25T09:29:11.025Z,81.32
2018-04-25T09:31:39.763Z,81.21
2018-04-25T09:34:08.294Z,81.35
2018-04-25T09:36:36.704Z,81.43
2018-04-25T09:39:05.287Z,81.76
2018-04-25T09:41:34.511Z,81.99
2018-04-25T09:44:02.900Z,82.46
2018-04-25T09:46:31.268Z,81.64
2018-04-25T09:48:59.721Z,81.39
2018-04-25T09:51:28.094Z,82.76
2018-04-25T09:53:56.453Z,83.36
2018-04-25T09:56:25.311Z,82.99
2018-04-25T09:58:53.664Z,83.60
2018-04-25T10:01:27.638Z,83.82
2018-04-25T10:03:56.008Z,83.80
2018-04-25T10:06:24.389Z,84.22
2018-04-25T10:08:52.792Z,84.47
2018-04-25T10:11:21.155Z,84.93
2018-04-25T10:13:49.469Z,84.80
2018-04-25T10:16:18.764Z,84.55
2018-04-25T10:18:47.223Z,85.23
2018-04-25T10:21:15.598Z,85.14
2018-04-25T10:23:43.998Z,84.78
2018-04-25T10:26:12.423Z,84.80
2018-04-25T10:28:40.912Z,84.48
2018-04-25T10:31:09.895Z,84.22
2018-04-25T10:33:38.291Z,84.72
2018-04-25T10:36:07.078Z,84.58
2018-04-25T10:38:35.532Z,84.54
2018-04-25T10:41:03.982Z,85.46
2018-04-25T10:43:32.388Z,84.73
2018-04-25T10:46:00.768Z,84.08
2018-04-25T10:48:29.328Z,84.09
2018-04-25T10:50:57.737Z,82.72
2018-04-25T10:53:26.116Z,82.04
2018-04-25T10:55:55.419Z,81.02
2018-04-25T10:58:23.790Z,81.21
2018-04-25T11:00:52.198Z,81.25
2018-04-25T11:03:20.627Z,81.40
2018-04-25T11:05:49.000Z,80.39
2018-04-25T11:08:18.051Z,80.46
2018-04-25T11:10:46.480Z,80.08
2018-04-25T11:13:14.919Z,76.83
2018-04-25T11:15:43.363Z,76.92
2018-04-25T11:18:11.836Z,75.87
2018-04-25T11:20:40.316Z,75.58
2018-04-25T11:23:08.781Z,76.00
2018-04-25T11:25:38.366Z,73.99
2018-04-25T11:28:06.821Z,73.13
2018-04-25T11:30:35.456Z,72.59
2018-04-25T11:33:03.899Z,72.48
2018-04-25T11:35:32.248Z,72.81
2018-04-25T11:38:00.702Z,72.57
2018-04-25T11:40:28.973Z,69.64
2018-04-25T11:42:57.329Z,69.18
2018-04-25T11:45:26.139Z,68.19
2018-04-25T11:47:54.495Z,67.93
2018-04-25T11:50:22.874Z,67.05
2018-04-25T11:52:51.275Z,67.76
2018-04-25T11:55:19.684Z,68.64
2018-04-25T11:57:48.061Z,67.22
2018-04-25T12:00:16.505Z,66.74
2018-04-25T12:02:45.961Z,65.64
2018-04-25T12:05:14.486Z,64.92
2018-04-25T12:07:43.926Z,64.73
2018-04-25T12:10:12.349Z,66.22
2018-04-25T12:12:40.763Z,66.04
2018-04-25T12:15:09.174Z,67.79
2018-04-25T12:17:37.576Z,66.40
2018-04-25T12:20:06.123Z,67.08
2018-04-25T12:22:35.461Z,67.51
2018-04-25T12:25:03.854Z,67.67
2018-04-25T12:27:32.251Z,66.67
2018-04-25T12:30:01.491Z,66.10
2018-04-25T12:32:29.827Z,65.53
2018-04-25T12:34:58.177Z,65.38
2018-04-25T12:37:26.583Z,64.86
2018-04-25T12:39:54.937Z,65.43
2018-04-25T12:42:23.264Z,65.66
2018-04-25T12:44:51.951Z,65.87
2018-04-25T12:47:20.387Z,64.91
2018-04-25T12:49:48.687Z,65.09
2018-04-25T12:52:17.138Z,64.67
2018-04-25T12:54:45.517Z,63.27
2018-04-25T12:57:13.912Z,62.94
2018-04-25T12:59:42.469Z,62.64
2018-04-25T13:02:10.893Z,61.93
2018-04-25T13:04:39.346Z,62.65
2018-04-25T13:07:08.111Z,62.52
2018-04-25T13:09:36.574Z,62.44
2018-04-25T13:12:04.967Z,62.54
2018-04-25T13:14:33.550Z,62.17
2018-04-25T13:17:01.922Z,62.98
2018-04-25T13:19:30.299Z,62.92
2018-04-25T13:21:58.655Z,62.74
2018-04-25T13:24:26.993Z,62.14
2018-04-25T13:26:55.339Z,62.98
2018-04-25T13:29:24.117Z,63.09
2018-04-25T13:31:52.575Z,63.68
2018-04-25T13:34:24.974Z,64.88
2018-04-25T13:36:53.761Z,66.01
2018-04-25T13:39:23.165Z,67.15
2018-04-25T13:41:51.625Z,67.81
2018-04-25T13:44:20.040Z,68.06
2018-04-25T13:46:48.517Z,66.61
2018-04-25T13:49:16.986Z,65.92
2018-04-25T13:51:45.707Z,65.51
2018-04-25T13:54:14.162Z,64.42
2018-04-25T13:56:42.586Z,62.98
2018-04-25T13:59:11.962Z,61.96
2018-04-25T14:01:40.540Z,60.15
2018-04-25T14:04:08.946Z,59.22
2018-04-25T14:06:38.089Z,59.50
2018-04-25T14:09:06.680Z,58.57
2018-04-25T14:11:35.215Z,59.46
2018-04-25T14:14:07.556Z,59.32
2018-04-25T14:16:36.134Z,59.55
2018-04-25T14:19:04.510Z,60.39
2018-04-25T14:21:33.298Z,60.48
2018-04-25T14:24:01.659Z,60.42
2018-04-25T14:26:30.086Z,61.13
2018-04-25T14:28:58.757Z,60.26
2018-04-25T14:31:27.122Z,61.03
2018-04-25T14:33:55.464Z,60.10
2018-04-25T14:36:23.884Z,60.55
2018-04-25T14:38:52.362Z,60.56
2018-04-25T14:41:20.709Z,59.92
2018-04-25T14:43:51.035Z,60.35
2018-04-25T14:46:19.450Z,61.15
2018-04-25T14:48:47.816Z,62.23
2018-04-25T14:51:16.807Z,63.46
2018-04-25T14:53:45.267Z,64.15
2018-04-25T14:56:13.741Z,64.33
2018-04-25T14:58:42.151Z,64.64
2018-04-25T15:01:11.142Z,64.85
2018-04-25T15:03:39.496Z,64.95
2018-04-25T15:06:08.164Z,65.08
2018-04-25T15:08:36.513Z,64.81
2018-04-25T15:11:05.093Z,65.02
2018-04-25T15:13:33.541Z,64.87
2018-04-25T15:16:01.869Z,65.03
2018-04-25T15:18:30.194Z,65.14
2018-04-25T15:20:59.085Z,65.19
2018-04-25T15:23:27.406Z,66.03
2018-04-25T15:25:55.802Z,65.77
2018-04-25T15:28:25.951Z,65.08
2018-04-25T15:30:54.286Z,65.20
2018-04-25T15:33:22.621Z,65.20
2018-04-25T15:35:52.062Z,64.89
2018-04-25T15:38:20.414Z,64.21
2018-04-25T15:40:48.809Z,62.13
2018-04-25T15:43:17.756Z,62.40
2018-04-25T15:45:46.095Z,62.66
2018-04-25T15:48:14.544Z,63.15
2018-04-25T15:50:43.880Z,63.23
2018-04-25T15:53:12.363Z,62.89
2018-04-25T15:55:41.024Z,62.48
2018-04-25T15:58:10.551Z,62.27
2018-04-25T16:00:39.157Z,62.04
2018-04-25T16:03:07.723Z,62.45
2018-04-25T16:05:36.398Z,62.35
2018-04-25T16:08:04.850Z,62.47
2018-04-25T16:10:33.347Z,62.81
2018-04-25T16:13:02.195Z,63.04
2018-04-25T16:15:30.537Z,62.75
2018-04-25T16:17:58.874Z,62.96
2018-04-25T16:20:27.247Z,63.94
2018-04-25T16:22:55.667Z,64.57
2018-04-25T16:25:24.068Z,66.55
2018-04-25T16:27:52.752Z,68.56
2018-04-25T16:30:21.106Z,69.93
2018-04-25T16:32:49.487Z,70.17
2018-04-25T16:35:18.684Z,70.30
2018-04-25T16:37:47.297Z,69.71
2018-04-25T16:40:15.913Z,68.70
2018-04-25T16:42:44.499Z,69.25
2018-04-25T16:45:13.040Z,69.89
2018-04-25T16:47:41.743Z,69.26
2018-04-25T16:50:10.588Z,68.69
2018-04-25T16:52:39.146Z,69.08
2018-04-25T16:55:07.620Z,68.92
2018-04-25T16:57:36.174Z,69.42
2018-04-25T17:00:05.006Z,69.97
2018-04-25T17:02:34.806Z,69.36
2018-04-25T17:05:06.030Z,69.55
2018-04-25T17:07:35.607Z,69.28
2018-04-25T17:10:05.079Z,69.16
2018-04-25T17:12:33.809Z,68.63
2018-04-25T17:15:02.160Z,68.50
2018-04-25T17:17:30.739Z,67.92
2018-04-25T17:19:59.775Z,67.44
2018-04-25T17:22:28.157Z,67.37
2018-04-25T17:24:56.469Z,66.64
2018-04-25T17:27:24.846Z,66.81
2018-04-25T17:29:54.828Z,66.14
2018-04-25T17:32:25.219Z,65.91
2018-04-25T17:34:56.227Z,66.33
2018-04-25T17:37:25.172Z,65.12
2018-04-25T17:39:54.410Z,64.88
2018-04-25T17:42:22.923Z,64.94
2018-04-25T17:44:51.277Z,64.63
2018-04-25T17:47:19.682Z,63.58
2018-04-25T17:49:48.063Z,62.95
2018-04-25T17:52:16.519Z,63.28
2018-04-25T17:54:44.947Z,63.53
2018-04-25T17:57:13.408Z,63.23
2018-04-25T17:59:41.815Z,62.98
2018-04-25T18:02:10.290Z,63.04
2018-04-25T18:04:39.073Z,63.17
2018-04-25T18:07:07.628Z,63.37
2018-04-25T18:09:36.128Z,63.04
2018-04-25T18:12:04.541Z,63.13
2018-04-25T18:14:32.898Z,63.62
2018-04-25T18:17:01.364Z,63.68
2018-04-25T18:19:29.939Z,63.83
2018-04-25T18:21:58.278Z,64.23
2018-04-25T18:24:26.635Z,64.60
2018-04-25T18:26:56.024Z,65.28
2018-04-25T18:29:24.436Z,65.53
2018-04-25T18:31:52.783Z,66.20
2018-04-25T18:34:21.245Z,66.14
2018-04-25T18:36:49.578Z,66.18
2018-04-25T18:39:17.975Z,66.42
2018-04-25T18:41:46.603Z,66.51
2018-04-25T18:44:15.013Z,66.52
2018-04-25T18:46:43.550Z,67.12
2018-04-25T18:49:11.986Z,67.73
2018-04-25T18:51:40.556Z,67.79
2018-04-25T18:54:08.946Z,67.84
2018-04-25T18:56:37.506Z,67.57
2018-04-25T18:59:05.981Z,67.41
2018-04-25T19:01:34.523Z,67.26
2018-04-25T19:04:04.209Z,67.16
2018-04-25T19:06:32.794Z,67.28
2018-04-25T19:09:01.328Z,67.04
2018-04-25T19:11:30.291Z,66.94
2018-04-25T19:13:58.674Z,66.94
2018-04-25T19:16:29.035Z,67.45
2018-04-25T19:18:57.511Z,67.57
2018-04-25T19:21:25.858Z,67.79
2018-04-25T19:23:54.204Z,68.55
2018-04-25T19:26:22.618Z,68.59
2018-04-25T19:28:50.994Z,70.04
2018-04-25T19:31:19.375Z,69.92
2018-04-25T19:33:48.163Z,70.23
2018-04-25T19:36:16.623Z,70.09
2018-04-25T19:38:45.038Z,70.58
2018-04-25T19:41:13.584Z,70.32
2018-04-25T19:43:42.437Z,70.59
2018-04-25T19:46:11.197Z,70.87
2018-04-25T19:48:39.809Z,70.16
2018-04-25T19:51:08.275Z,70.29
2018-04-25T19:53:36.647Z,70.85
2018-04-25T19:56:05.255Z,70.53
2018-04-25T19:58:33.721Z,70.26
2018-04-25T20:01:02.142Z,70.20
2018-04-25T20:03:30.592Z,70.23
2018-04-25T20:05:58.996Z,70.70
2018-04-25T20:08:27.371Z,71.20
2018-04-25T20:10:55.922Z,70.43
2018-04-25T20:13:26.267Z,70.12
2018-04-25T20:15:54.599Z,70.48
2018-04-25T20:18:23.351Z,70.30
2018-04-25T20:20:51.698Z,70.75
2018-04-25T20:23:20.217Z,70.57
2018-04-25T20:25:49.106Z,70.14
2018-04-25T20:28:17.484Z,70.48
2018-04-25T20:30:46.044Z,70.30
2018-04-25T20:33:14.535Z,70.27
2018-04-25T20:35:43.074Z,70.10
2018-04-25T20:38:11.481Z,70.42
2018-04-25T20:40:40.010Z,70.98
2018-04-25T20:43:08.420Z,71.06
2018-04-25T20:45:36.801Z,71.03
2018-04-25T20:48:06.004Z,71.03
2018-04-25T20:50:34.456Z,71.00
2018-04-25T20:53:02.837Z,71.31
2018-04-25T20:55:31.719Z,71.42
2018-04-25T20:58:00.101Z,71.45
2018-04-25T21:00:28.617Z,71.48
2018-04-25T21:02:57.014Z,71.46
2018-04-25T21:05:25.394Z,71.38
2018-04-25T21:07:53.746Z,71.44
2018-04-25T21:10:22.446Z,71.92
2018-04-25T21:12:50.811Z,72.64
2018-04-25T21:15:19.253Z,73.13
2018-04-25T21:17:47.909Z,73.42
2018-04-25T21:20:16.369Z,74.24
2018-04-25T21:22:44.791Z,74.99
2018-04-25T21:25:13.319Z,75.40
2018-04-25T21:27:41.675Z,75.82
2018-04-25T21:30:10.213Z,76.09
2018-04-25T21:32:40.154Z,76.17
2018-04-25T21:35:08.511Z,76.22
2018-04-25T21:37:36.960Z,76.04
2018-04-25T21:40:05.435Z,76.06
2018-04-25T21:42:34.392Z,75.98
2018-04-25T21:45:02.766Z,76.17
2018-04-25T21:47:31.166Z,76.36
2018-04-25T21:49:59.522Z,76.87
2018-04-25T21:52:27.871Z,77.34
2018-04-25T21:54:56.353Z,77.64
2018-04-25T21:57:24.722Z,78.10
2018-04-25T21:59:53.088Z,78.66
2018-04-25T22:02:22.134Z,78.41
2018-04-25T22:04:50.477Z,78.58
2018-04-25T22:07:18.868Z,79.19
2018-04-25T22:09:47.284Z,79.80
2018-04-25T22:12:15.678Z,79.83
2018-04-25T22:14:44.074Z,80.41
2018-04-25T22:17:12.520Z,80.88
2018-04-25T22:19:40.866Z,81.10
2018-04-25T22:22:09.357Z,81.39
2018-04-25T22:24:38.035Z,81.60
2018-04-25T22:27:06.540Z,81.62
2018-04-25T22:29:34.943Z,81.43
2018-04-25T22:32:03.748Z,81.69
2018-04-25T22:34:32.095Z,81.52
2018-04-25T22:37:00.424Z,81.71
2018-04-25T22:39:28.852Z,81.16
2018-04-25T22:41:57.177Z,80.84
2018-04-25T22:44:25.531Z,81.08
2018-04-25T22:46:54.829Z,81.03
2018-04-25T22:49:23.199Z,80.95
2018-04-25T22:51:51.547Z,80.90
2018-04-25T22:54:20.589Z,80.80
2018-04-25T22:56:48.921Z,80.31
2018-04-25T22:59:17.374Z,80.49
2018-04-25T23:01:45.904Z,80.28
2018-04-25T23:04:14.311Z,79.89
2018-04-25T23:06:42.732Z,79.74
2018-04-25T23:09:11.131Z,79.44
2018-04-25T23:11:39.498Z,79.25
2018-04-25T23:14:07.922Z,79.19
2018-04-25T23:16:37.187Z,79.08
2018-04-25T23:19:05.619Z,78.80
2018-04-25T23:21:34.032Z,79.20
2018-04-25T23:24:02.862Z,79.33
2018-04-25T23:26:31.854Z,79.43
2018-04-25T23:29:00.202Z,79.27
2018-04-25T23:31:28.548Z,79.27
2018-04-25T23:33:56.941Z,79.41
2018-04-25T23:36:25.337Z,79.21
2018-04-25T23:38:54.060Z,79.25
2018-04-25T23:41:22.394Z,79.27
2018-04-25T23:43:50.751Z,79.27
2018-04-25T23:46:20.214Z,79.46
2018-04-25T23:48:48.597Z,79.58
2018-04-25T23:51:16.921Z,79.59
2018-04-25T23:53:45.327Z,79.42
2018-04-25T23:56:13.864Z,79.45
2018-04-25T23:58:42.220Z,79.59
